Time;durP1;ratioP1;P1;durP2;ratioP2;P2;SDS_P1;SDS_P2;PMS_P1;PMS_P2;Temp;Humidity;BMP_temperature;BMP_pressure;BME280_temperature;BME280_humidity;BME280_pressure;Samples;Min_cycle;Max_cycle;Signal;HPM_P1;HPM_P2
2023/06/29 00:00:59;;;;;;;5.63;5.03;;;13.10;99.90;;;;;;5075199;28;20652;-74
2023/06/29 00:03:27;;;;;;;7.73;5.30;;;13.00;99.90;;;;;;5074909;28;20200;-74
2023/06/29 00:05:55;;;;;;;5.60;5.00;;;13.00;99.90;;;;;;5075280;28;20640;-75
2023/06/29 00:08:23;;;;;;;6.23;5.23;;;13.00;99.90;;;;;;5075151;28;20235;-74
2023/06/29 00:10:50;;;;;;;6.77;5.27;;;13.20;99.90;;;;;;5074807;28;20255;-74
2023/06/29 00:13:18;;;;;;;8.50;4.80;;;13.20;99.90;;;;;;5075023;28;20232;-74
2023/06/29 00:15:45;;;;;;;5.70;5.10;;;13.20;99.90;;;;;;5074801;28;20193;-74
2023/06/29 00:18:12;;;;;;;7.13;5.13;;;13.20;99.90;;;;;;5075021;28;20197;-75
2023/06/29 00:20:39;;;;;;;5.47;4.97;;;13.10;99.90;;;;;;5074913;28;20282;-74
2023/06/29 00:23:06;;;;;;;6.37;4.83;;;13.10;99.90;;;;;;5074756;28;20628;-74
2023/06/29 00:25:32;;;;;;;6.50;5.10;;;13.10;99.90;;;;;;5074846;28;20247;-74
2023/06/29 00:27:59;;;;;;;5.30;4.80;;;13.20;99.90;;;;;;5074696;28;20201;-74
2023/06/29 00:30:27;;;;;;;6.27;4.90;;;13.20;99.90;;;;;;5074685;28;20204;-73
2023/06/29 00:32:54;;;;;;;5.90;4.97;;;13.00;99.90;;;;;;5074773;28;20285;-73
2023/06/29 00:35:20;;;;;;;5.20;4.77;;;12.90;99.90;;;;;;5074770;28;20266;-72
2023/06/29 00:37:47;;;;;;;5.13;4.63;;;12.80;99.90;;;;;;5074504;28;20266;-73
2023/06/29 00:40:14;;;;;;;4.83;4.20;;;12.70;99.90;;;;;;5074384;28;20235;-73
2023/06/29 00:42:40;;;;;;;5.93;4.77;;;12.80;99.90;;;;;;5074340;28;20196;-74
2023/06/29 00:45:08;;;;;;;4.97;4.57;;;12.70;99.90;;;;;;5073512;28;20201;-74
2023/06/29 00:47:36;;;;;;;5.67;4.57;;;12.70;99.90;;;;;;5074438;28;20205;-75
2023/06/29 00:50:04;;;;;;;5.90;4.63;;;12.70;99.90;;;;;;5074385;28;20197;-74
2023/06/29 00:52:31;;;;;;;5.17;4.67;;;12.60;99.90;;;;;;5074210;28;20220;-73
2023/06/29 00:54:59;;;;;;;8.87;4.67;;;12.60;99.90;;;;;;5073913;28;20228;-73
2023/06/29 00:57:26;;;;;;;11.97;5.60;;;12.50;99.90;;;;;;5073966;28;20205;-73
2023/06/29 00:59:52;;;;;;;5.20;4.70;;;12.50;99.90;;;;;;5073797;28;20225;-73
2023/06/29 01:02:19;;;;;;;5.37;4.87;;;12.50;99.90;;;;;;5074039;28;20247;-73
2023/06/29 01:04:47;;;;;;;5.70;5.10;;;12.40;99.90;;;;;;5073977;28;20276;-72
2023/06/29 01:07:20;;;;;;;6.57;5.10;;;12.50;99.90;;;;;;5074112;28;20223;-73
2023/06/29 01:09:47;;;;;;;7.27;4.90;;;12.40;99.90;;;;;;5073863;28;20193;-73
2023/06/29 01:12:16;;;;;;;7.33;5.50;;;12.30;99.90;;;;;;5073605;28;20262;-73
2023/06/29 01:14:45;;;;;;;6.57;5.97;;;12.30;99.90;;;;;;5073672;28;20197;-73
2023/06/29 01:17:14;;;;;;;6.90;6.20;;;12.30;99.90;;;;;;5073679;28;20201;-73
2023/06/29 01:19:43;;;;;;;6.03;5.53;;;12.30;99.90;;;;;;5073458;28;20221;-73
2023/06/29 01:22:19;;;;;;;6.10;5.50;;;12.20;99.90;;;;;;5073535;28;20194;-73
2023/06/29 01:24:48;;;;;;;7.30;5.87;;;12.20;99.90;;;;;;5073268;28;20193;-73
2023/06/29 01:27:15;;;;;;;8.37;6.20;;;12.10;99.90;;;;;;5073485;28;20245;-73
2023/06/29 01:29:42;;;;;;;6.90;6.20;;;12.10;99.90;;;;;;5073574;28;20254;-73
2023/06/29 01:32:10;;;;;;;9.07;5.90;;;12.00;99.90;;;;;;5073388;28;20196;-73
2023/06/29 01:34:37;;;;;;;6.63;5.97;;;12.00;99.90;;;;;;5073323;28;20560;-73
2023/06/29 01:37:10;;;;;;;11.33;6.33;;;11.90;99.90;;;;;;5073250;28;20197;-73
2023/06/29 01:39:42;;;;;;;6.83;5.93;;;11.90;99.90;;;;;;5073348;28;20232;-72
2023/06/29 01:42:12;;;;;;;6.53;5.80;;;11.80;99.90;;;;;;5073312;28;20284;-73
2023/06/29 01:44:38;;;;;;;8.97;5.60;;;11.80;99.90;;;;;;5073351;28;20193;-73
2023/06/29 01:47:07;;;;;;;7.03;6.10;;;11.80;99.90;;;;;;5073226;28;20611;-73
2023/06/29 01:49:35;;;;;;;9.83;6.27;;;11.80;99.90;;;;;;5073054;28;20196;-72
2023/06/29 01:52:02;;;;;;;6.50;5.90;;;11.70;99.90;;;;;;5073232;28;20200;-73
2023/06/29 01:54:28;;;;;;;8.67;6.53;;;11.70;99.90;;;;;;5072825;28;20696;-73
2023/06/29 01:56:55;;;;;;;7.27;5.80;;;11.60;99.90;;;;;;5073377;28;20262;-73
2023/06/29 01:59:23;;;;;;;9.10;7.30;;;11.60;99.90;;;;;;5072774;28;20225;-75
2023/06/29 02:01:49;;;;;;;8.40;6.97;;;11.60;99.90;;;;;;5072893;28;20200;-73
2023/06/29 02:04:16;;;;;;;7.13;6.43;;;11.60;99.90;;;;;;5072864;28;20721;-73
2023/06/29 02:06:43;;;;;;;7.37;6.33;;;11.60;99.90;;;;;;5073142;28;20193;-73
2023/06/29 02:09:10;;;;;;;9.77;6.43;;;11.60;99.90;;;;;;5073012;28;20197;-73
2023/06/29 02:11:36;;;;;;;8.37;7.43;;;11.60;99.90;;;;;;5072766;28;20714;-73
2023/06/29 02:14:03;;;;;;;7.73;6.93;;;11.60;99.90;;;;;;5072873;28;20227;-74
2023/06/29 02:16:31;;;;;;;10.63;6.97;;;11.50;99.90;;;;;;5072730;28;20258;-74
2023/06/29 02:18:58;;;;;;;7.23;6.53;;;11.50;99.90;;;;;;5072714;28;20652;-74
2023/06/29 02:21:24;;;;;;;11.03;7.10;;;11.50;99.90;;;;;;5072803;28;20252;-73
2023/06/29 02:23:51;;;;;;;8.10;7.33;;;11.50;99.90;;;;;;5072773;28;20196;-74
2023/06/29 02:26:18;;;;;;;8.47;7.07;;;11.40;99.90;;;;;;5072471;28;20197;-74
2023/06/29 02:28:44;;;;;;;11.87;7.80;;;11.40;99.90;;;;;;5072676;28;20193;-74
2023/06/29 02:31:11;;;;;;;11.83;7.10;;;11.40;99.90;;;;;;5072626;28;20316;-73
2023/06/29 02:33:39;;;;;;;8.70;7.60;;;11.30;99.90;;;;;;5072718;28;20259;-73
2023/06/29 02:36:06;;;;;;;10.47;7.20;;;11.30;99.90;;;;;;5072750;28;20247;-73
2023/06/29 02:38:33;;;;;;;10.50;7.73;;;11.20;99.90;;;;;;5072646;28;20233;-73
2023/06/29 02:40:59;;;;;;;11.20;7.70;;;11.30;99.90;;;;;;5072718;28;20264;-73
2023/06/29 02:43:26;;;;;;;9.10;7.57;;;11.20;99.90;;;;;;5072527;28;20197;-74
2023/06/29 02:45:52;;;;;;;7.97;7.17;;;11.20;99.90;;;;;;5072130;28;20595;-73
2023/06/29 02:48:19;;;;;;;8.13;7.23;;;11.10;99.90;;;;;;5072662;28;20189;-74
2023/06/29 02:50:47;;;;;;;8.90;7.63;;;11.10;99.90;;;;;;5072417;28;20197;-73
2023/06/29 02:53:16;;;;;;;8.33;7.53;;;11.10;99.90;;;;;;5072367;28;20197;-73
2023/06/29 02:55:43;;;;;;;7.73;6.90;;;11.10;99.90;;;;;;5072198;28;20236;-74
2023/06/29 02:58:10;;;;;;;8.77;7.23;;;11.00;99.90;;;;;;5072364;28;20196;-73
2023/06/29 03:00:36;;;;;;;10.47;8.37;;;11.00;99.90;;;;;;5071851;28;20234;-74
2023/06/29 03:03:03;;;;;;;10.70;8.07;;;11.00;99.90;;;;;;5072439;28;20657;-74
2023/06/29 03:05:30;;;;;;;8.57;7.70;;;11.10;99.90;;;;;;5072392;28;20197;-73
2023/06/29 03:07:58;;;;;;;10.10;7.87;;;11.10;99.90;;;;;;5074496;28;20220;-73
2023/06/29 03:10:24;;;;;;;9.07;8.00;;;11.10;99.90;;;;;;5076025;28;20216;-73
2023/06/29 03:12:51;;;;;;;8.33;7.43;;;11.10;99.90;;;;;;5075950;28;20720;-73
2023/06/29 03:15:18;;;;;;;8.47;7.20;;;11.10;99.90;;;;;;5076238;28;20205;-74
2023/06/29 03:17:44;;;;;;;9.30;7.30;;;11.00;99.90;;;;;;5076073;28;20220;-74
2023/06/29 03:20:13;;;;;;;9.43;7.87;;;11.00;99.90;;;;;;5076013;28;20257;-74
2023/06/29 03:22:40;;;;;;;8.63;7.83;;;11.00;99.90;;;;;;5075863;28;20259;-73
2023/06/29 03:25:09;;;;;;;8.97;7.83;;;11.00;99.90;;;;;;5075779;28;20200;-73
2023/06/29 03:27:36;;;;;;;7.97;7.20;;;11.00;99.90;;;;;;5075664;28;20274;-73
2023/06/29 03:30:04;;;;;;;8.37;7.40;;;11.00;99.90;;;;;;5076008;28;20225;-74
2023/06/29 03:32:31;;;;;;;9.27;8.00;;;11.10;99.90;;;;;;5075756;28;20247;-73
2023/06/29 03:34:57;;;;;;;8.00;7.23;;;11.20;99.90;;;;;;5075785;28;20259;-73
2023/06/29 03:37:24;;;;;;;8.20;7.40;;;11.20;99.90;;;;;;5075634;28;20197;-73
2023/06/29 03:39:50;;;;;;;11.80;7.27;;;11.20;99.90;;;;;;5075499;28;20729;-73
2023/06/29 03:42:19;;;;;;;8.27;7.53;;;11.30;99.90;;;;;;5075553;28;20209;-73
2023/06/29 03:44:46;;;;;;;10.57;7.80;;;11.40;99.90;;;;;;5075622;28;20281;-73
2023/06/29 03:47:13;;;;;;;9.40;8.17;;;11.30;99.90;;;;;;5075514;28;20231;-73
2023/06/29 03:49:39;;;;;;;10.97;7.30;;;11.40;99.90;;;;;;5075602;28;20204;-73
2023/06/29 03:52:07;;;;;;;7.77;7.07;;;11.40;99.90;;;;;;5075369;28;20246;-74
2023/06/29 03:54:33;;;;;;;12.37;7.43;;;11.60;99.90;;;;;;5075257;28;20233;-74
2023/06/29 03:57:01;;;;;;;8.93;7.63;;;11.70;99.90;;;;;;5075623;28;20606;-73
2023/06/29 03:59:29;;;;;;;7.93;7.10;;;11.90;99.90;;;;;;5075371;28;20564;-74
2023/06/29 04:01:56;;;;;;;7.87;7.00;;;12.00;99.90;;;;;;5075047;28;20200;-73
2023/06/29 04:04:22;;;;;;;8.73;7.13;;;12.20;99.90;;;;;;5075131;28;20633;-73
2023/06/29 04:06:49;;;;;;;6.97;6.37;;;12.20;99.90;;;;;;5075119;28;20246;-73
2023/06/29 04:09:16;;;;;;;7.70;7.00;;;12.20;99.90;;;;;;5074975;28;20197;-74
2023/06/29 04:11:42;;;;;;;9.47;7.27;;;12.30;99.90;;;;;;5075045;28;20224;-74
2023/06/29 04:14:09;;;;;;;6.97;6.37;;;12.40;99.90;;;;;;5075138;28;20201;-74
2023/06/29 04:16:38;;;;;;;7.23;6.53;;;12.40;99.90;;;;;;5074882;28;20246;-74
2023/06/29 04:19:04;;;;;;;10.80;7.53;;;12.50;99.90;;;;;;5073701;28;20594;-74
2023/06/29 04:21:31;;;;;;;9.07;8.17;;;12.50;99.90;;;;;;5074456;28;20223;-74
2023/06/29 04:23:58;;;;;;;12.80;8.73;;;12.50;99.90;;;;;;5074527;28;20250;-73
2023/06/29 04:26:27;;;;;;;9.80;8.83;;;12.60;99.90;;;;;;5074826;28;20197;-74
2023/06/29 04:29:01;;;;;;;9.13;7.67;;;12.60;99.90;;;;;;5074727;28;20201;-74
2023/06/29 04:31:28;;;;;;;8.70;7.90;;;12.70;99.90;;;;;;5074553;28;20294;-74
2023/06/29 04:33:57;;;;;;;10.83;7.60;;;12.80;99.90;;;;;;5074460;28;20201;-74
2023/06/29 04:36:24;;;;;;;8.00;7.27;;;12.80;99.90;;;;;;5074293;28;20201;-74
2023/06/29 04:38:51;;;;;;;8.90;7.63;;;12.90;99.90;;;;;;5074617;28;20251;-74
2023/06/29 04:41:18;;;;;;;7.80;7.03;;;13.00;99.90;;;;;;5074524;28;20246;-74
2023/06/29 04:43:49;;;;;;;10.37;7.50;;;13.10;99.90;;;;;;5074458;28;20274;-73
2023/06/29 04:46:17;;;;;;;8.63;6.80;;;13.20;99.90;;;;;;5074299;28;20205;-74
2023/06/29 04:48:46;;;;;;;7.80;6.97;;;13.30;99.90;;;;;;5074221;28;20719;-74
2023/06/29 04:51:17;;;;;;;10.10;7.17;;;13.30;99.90;;;;;;5074323;28;20308;-74
2023/06/29 04:53:44;;;;;;;7.13;6.47;;;13.50;99.90;;;;;;5074298;28;20236;-73
2023/06/29 04:56:10;;;;;;;7.53;6.73;;;13.60;99.90;;;;;;5074129;28;20232;-74
2023/06/29 04:58:37;;;;;;;7.90;7.07;;;13.70;99.90;;;;;;5074211;28;20656;-74
2023/06/29 05:01:04;;;;;;;7.93;6.73;;;13.80;99.90;;;;;;5074005;28;20197;-74
2023/06/29 05:03:31;;;;;;;13.00;6.93;;;13.90;99.90;;;;;;5073486;28;20201;-74
2023/06/29 05:05:58;;;;;;;9.10;7.17;;;14.00;99.90;;;;;;5073952;28;20232;-75
2023/06/29 05:08:26;;;;;;;7.63;6.93;;;14.10;99.90;;;;;;5073672;28;20243;-74
2023/06/29 05:10:53;;;;;;;7.23;6.60;;;14.20;99.90;;;;;;5073757;28;20228;-74
2023/06/29 05:13:19;;;;;;;9.30;6.97;;;14.30;99.90;;;;;;5073252;28;20270;-74
2023/06/29 05:15:48;;;;;;;7.83;7.03;;;14.50;99.90;;;;;;5073507;28;20201;-73
2023/06/29 05:18:15;;;;;;;8.47;7.57;;;14.60;99.90;;;;;;5073769;28;20196;-74
2023/06/29 05:20:42;;;;;;;11.20;7.10;;;14.70;99.90;;;;;;5073554;28;20224;-74
2023/06/29 05:23:09;;;;;;;9.30;7.77;;;14.80;99.90;;;;;;5073542;28;20714;-74
2023/06/29 05:25:37;;;;;;;7.67;6.90;;;14.90;99.90;;;;;;5073587;28;20201;-74
2023/06/29 05:28:04;;;;;;;9.93;6.60;;;15.00;99.90;;;;;;5073182;28;20197;-74
2023/06/29 05:30:31;;;;;;;8.80;6.67;;;15.20;99.90;;;;;;5072827;28;20224;-73
2023/06/29 05:32:57;;;;;;;11.47;6.97;;;15.30;99.90;;;;;;5073144;28;20197;-73
2023/06/29 05:35:24;;;;;;;13.20;7.60;;;15.40;99.90;;;;;;5073416;28;20201;-73
2023/06/29 05:37:50;;;;;;;17.40;8.07;;;15.60;99.90;;;;;;5073306;28;20231;-74
2023/06/29 05:40:17;;;;;;;15.55;7.60;;;15.80;99.90;;;;;;5073187;28;20299;-74
2023/06/29 05:42:45;;;;;;;16.15;6.90;;;15.90;99.90;;;;;;5073443;28;20200;-72
2023/06/29 05:45:12;;;;;;;9.63;6.28;;;16.10;99.90;;;;;;5072899;28;20212;-72
2023/06/29 05:47:38;;;;;;;13.63;7.17;;;16.20;99.90;;;;;;5072582;28;20667;-72
2023/06/29 05:50:06;;;;;;;11.13;6.93;;;16.30;99.90;;;;;;5073154;28;20209;-73
2023/06/29 05:52:34;;;;;;;9.77;7.07;;;16.50;99.90;;;;;;5072793;28;20228;-71
2023/06/29 05:55:00;;;;;;;8.82;6.20;;;16.60;99.90;;;;;;5072708;28;20734;-72
2023/06/29 05:57:27;;;;;;;11.18;6.68;;;16.70;99.90;;;;;;5072909;28;20193;-72
2023/06/29 05:59:55;;;;;;;8.75;6.43;;;16.80;99.90;;;;;;5072844;28;20648;-72
2023/06/29 06:02:22;;;;;;;6.80;5.72;;;17.00;99.90;;;;;;5073076;28;20203;-71
2023/06/29 06:04:49;;;;;;;7.80;6.07;;;17.10;99.90;;;;;;5073043;28;20724;-72
2023/06/29 06:07:16;;;;;;;7.47;6.03;;;17.20;99.90;;;;;;5072855;28;20204;-72
2023/06/29 06:09:42;;;;;;;7.97;6.10;;;17.30;99.90;;;;;;5072805;28;20207;-72
2023/06/29 06:12:09;;;;;;;6.50;5.63;;;17.40;99.90;;;;;;5072329;28;20224;-72
2023/06/29 06:14:36;;;;;;;5.30;4.80;;;17.60;99.90;;;;;;5072745;28;20250;-74
2023/06/29 06:17:04;;;;;;;12.32;5.90;;;17.70;99.90;;;;;;5072702;28;20197;-72
2023/06/29 06:19:31;;;;;;;7.60;5.70;;;17.90;99.90;;;;;;5072537;28;20193;-72
2023/06/29 06:21:58;;;;;;;8.50;5.53;;;18.00;99.90;;;;;;5072958;28;20714;-73
2023/06/29 06:24:24;;;;;;;6.53;5.68;;;18.00;99.90;;;;;;5072681;28;20205;-73
2023/06/29 06:26:51;;;;;;;6.90;5.57;;;18.20;99.90;;;;;;5072669;28;20250;-73
2023/06/29 06:29:17;;;;;;;8.68;5.07;;;18.30;99.90;;;;;;5072667;28;20660;-72
2023/06/29 06:31:44;;;;;;;6.22;5.00;;;18.40;99.90;;;;;;5072807;28;20232;-73
2023/06/29 06:34:12;;;;;;;9.60;5.50;;;18.60;99.90;;;;;;5072667;28;20197;-73
2023/06/29 06:36:39;;;;;;;10.55;5.80;;;18.70;99.90;;;;;;5072266;28;20683;-71
2023/06/29 06:39:05;;;;;;;6.80;5.20;;;18.80;99.90;;;;;;5072186;28;20200;-72
2023/06/29 06:41:32;;;;;;;5.53;4.50;;;18.90;99.90;;;;;;5072253;28;20197;-72
2023/06/29 06:43:59;;;;;;;5.72;5.10;;;19.00;99.90;;;;;;5076361;28;20201;-72
2023/06/29 06:46:25;;;;;;;8.68;4.97;;;19.10;99.90;;;;;;5076195;28;20208;-72
2023/06/29 06:48:52;;;;;;;8.95;4.47;;;19.20;99.90;;;;;;5076227;28;20200;-72
2023/06/29 06:51:20;;;;;;;7.07;4.43;;;19.30;99.90;;;;;;5076192;28;20220;-72
2023/06/29 06:53:47;;;;;;;5.22;4.35;;;19.40;99.90;;;;;;5076062;28;20196;-71
2023/06/29 06:56:13;;;;;;;7.18;4.10;;;19.60;99.90;;;;;;5075685;28;20229;-70
2023/06/29 06:58:40;;;;;;;4.75;3.92;;;19.70;99.90;;;;;;5076235;28;20201;-72
2023/06/29 07:01:08;;;;;;;4.30;3.60;;;19.80;99.90;;;;;;5076221;28;20212;-71
2023/06/29 07:03:35;;;;;;;4.95;4.18;;;19.80;99.90;;;;;;5075901;28;20231;-73
2023/06/29 07:06:01;;;;;;;9.10;4.07;;;20.00;99.90;;;;;;5076076;28;20274;-71
2023/06/29 07:08:30;;;;;;;6.55;3.63;;;20.20;99.90;;;;;;5075762;28;20680;-70
2023/06/29 07:10:56;;;;;;;4.93;3.70;;;20.20;99.90;;;;;;5075628;28;20653;-71
2023/06/29 07:13:24;;;;;;;10.25;3.65;;;20.40;99.90;;;;;;5075832;28;20262;-71
2023/06/29 07:15:50;;;;;;;4.75;3.47;;;20.50;99.90;;;;;;5075823;28;20227;-72
2023/06/29 07:18:17;;;;;;;4.30;3.00;;;20.60;99.90;;;;;;5075711;28;20261;-71
2023/06/29 07:20:44;;;;;;;6.00;3.80;;;20.80;99.90;;;;;;5075604;28;20197;-71
2023/06/29 07:23:10;;;;;;;3.55;3.08;;;21.00;99.90;;;;;;5075428;28;20200;-71
2023/06/29 07:25:38;;;;;;;3.80;3.20;;;21.10;99.90;;;;;;5075657;28;20222;-71
2023/06/29 07:28:05;;;;;;;5.03;3.00;;;21.20;99.40;;;;;;5075593;28;20209;-72
2023/06/29 07:30:31;;;;;;;5.68;3.28;;;21.30;99.30;;;;;;5075486;28;20600;-71
2023/06/29 07:32:58;;;;;;;7.32;3.05;;;21.40;98.80;;;;;;5075455;28;20224;-71
2023/06/29 07:35:25;;;;;;;4.93;2.78;;;21.40;95.80;;;;;;5075367;28;20205;-71
2023/06/29 07:37:51;;;;;;;3.88;2.83;;;21.60;94.80;;;;;;5075599;28;20201;-72
2023/06/29 07:40:19;;;;;;;6.57;2.67;;;21.70;95.10;;;;;;5075459;28;20197;-73
2023/06/29 07:42:47;;;;;;;4.75;2.83;;;21.90;94.10;;;;;;5075404;28;20228;-72
2023/06/29 07:45:14;;;;;;;3.95;2.80;;;22.10;92.90;;;;;;5075239;28;20649;-72
2023/06/29 07:47:41;;;;;;;4.82;3.20;;;22.00;92.00;;;;;;5074933;28;20230;-72
2023/06/29 07:50:08;;;;;;;3.42;2.58;;;22.20;91.50;;;;;;5075159;28;20631;-73
2023/06/29 07:52:35;;;;;;;3.38;2.67;;;22.30;90.00;;;;;;5075213;28;20233;-73
2023/06/29 07:55:01;;;;;;;3.38;2.72;;;22.30;88.70;;;;;;5075053;28;20225;-72
2023/06/29 07:57:28;;;;;;;6.47;3.30;;;22.30;87.30;;;;;;5075023;28;20251;-72
2023/06/29 07:59:56;;;;;;;5.43;2.80;;;22.40;87.20;;;;;;5075114;28;20246;-73
2023/06/29 08:02:23;;;;;;;4.28;3.25;;;22.90;87.40;;;;;;5075094;28;20201;-73
2023/06/29 08:04:50;;;;;;;4.05;2.92;;;23.00;88.90;;;;;;5075253;28;20530;-73
2023/06/29 08:07:17;;;;;;;7.50;3.08;;;23.00;86.10;;;;;;5074858;28;20597;-73
2023/06/29 08:09:43;;;;;;;4.68;3.33;;;23.30;85.80;;;;;;5074973;28;20337;-72
2023/06/29 08:12:10;;;;;;;4.40;3.28;;;23.40;83.00;;;;;;5074904;28;20274;-73
2023/06/29 08:14:38;;;;;;;4.85;2.67;;;23.30;84.00;;;;;;5074836;28;20208;-73
2023/06/29 08:17:06;;;;;;;4.05;2.72;;;23.60;85.00;;;;;;5074793;28;20201;-71
2023/06/29 08:19:33;;;;;;;4.28;2.80;;;23.60;78.80;;;;;;5075185;28;20201;-72
2023/06/29 08:21:59;;;;;;;6.82;2.95;;;23.70;77.00;;;;;;5074870;28;20242;-72
2023/06/29 08:24:26;;;;;;;6.82;3.28;;;23.80;79.10;;;;;;5074396;28;20228;-72
2023/06/29 08:26:53;;;;;;;5.25;3.20;;;23.80;78.70;;;;;;5074331;28;20603;-72
2023/06/29 08:29:20;;;;;;;3.67;2.67;;;23.90;77.40;;;;;;5074294;28;20205;-72
2023/06/29 08:31:47;;;;;;;5.90;3.10;;;23.90;76.70;;;;;;5074151;28;20266;-72
2023/06/29 08:34:15;;;;;;;6.43;3.25;;;24.30;75.30;;;;;;5074235;28;20648;-72
2023/06/29 08:36:41;;;;;;;3.97;3.00;;;24.30;73.60;;;;;;5074359;28;20192;-72
2023/06/29 08:39:08;;;;;;;3.70;2.92;;;24.50;72.70;;;;;;5074334;28;20197;-72
2023/06/29 08:41:35;;;;;;;5.30;3.10;;;24.20;72.20;;;;;;5074186;28;20237;-72
2023/06/29 08:44:04;;;;;;;4.82;3.13;;;24.30;72.00;;;;;;5074198;28;20197;-72
2023/06/29 08:46:31;;;;;;;2.95;2.45;;;24.20;71.30;;;;;;5074076;28;20224;-72
2023/06/29 08:48:58;;;;;;;4.22;2.95;;;24.40;70.60;;;;;;5074167;28;20285;-72
2023/06/29 08:51:29;;;;;;;3.58;3.10;;;24.90;71.10;;;;;;5074081;28;20201;-72
2023/06/29 08:53:56;;;;;;;3.67;2.88;;;25.50;69.70;;;;;;5073895;28;20203;-72
2023/06/29 08:56:24;;;;;;;3.28;2.63;;;25.40;66.10;;;;;;5073907;28;20229;-72
2023/06/29 08:58:51;;;;;;;4.43;2.63;;;25.40;65.70;;;;;;5073878;28;20197;-72
2023/06/29 09:01:18;;;;;;;4.43;3.00;;;25.40;64.60;;;;;;5074101;28;20198;-72
2023/06/29 09:03:45;;;;;;;5.93;2.90;;;25.40;64.40;;;;;;5073982;28;20201;-71
2023/06/29 09:06:14;;;;;;;5.85;2.58;;;25.70;64.10;;;;;;5073339;28;20648;-71
2023/06/29 09:08:42;;;;;;;3.88;2.50;;;25.70;61.60;;;;;;5073717;28;20247;-71
2023/06/29 09:11:09;;;;;;;3.83;2.80;;;25.50;62.60;;;;;;5073719;28;20557;-71
2023/06/29 09:13:36;;;;;;;2.85;2.50;;;25.70;61.60;;;;;;5073399;28;20221;-71
2023/06/29 09:16:04;;;;;;;2.90;2.60;;;25.70;61.30;;;;;;5073796;28;20201;-71
2023/06/29 09:18:32;;;;;;;4.35;2.75;;;26.10;60.10;;;;;;5073662;28;20208;-71
2023/06/29 09:20:59;;;;;;;5.03;2.60;;;26.00;58.60;;;;;;5073728;28;20291;-73
2023/06/29 09:23:27;;;;;;;3.22;2.90;;;26.10;59.40;;;;;;5073022;28;20205;-71
2023/06/29 09:25:57;;;;;;;5.65;2.53;;;26.80;58.10;;;;;;5073397;28;20291;-71
2023/06/29 09:28:23;;;;;;;3.40;3.00;;;26.90;56.30;;;;;;5073403;28;20602;-72
2023/06/29 09:30:50;;;;;;;3.30;2.70;;;26.90;55.70;;;;;;5073424;28;20197;-72
2023/06/29 09:33:18;;;;;;;4.18;2.60;;;26.90;55.70;;;;;;5073185;28;20275;-73
2023/06/29 09:35:47;;;;;;;4.78;2.50;;;27.20;54.90;;;;;;5058427;28;20194;-71
2023/06/29 09:38:15;;;;;;;3.38;2.67;;;27.50;54.70;;;;;;5053120;28;20661;-72
2023/06/29 09:40:49;;;;;;;3.92;2.67;;;27.90;53.80;;;;;;5053618;28;20206;-70
2023/06/29 09:43:18;;;;;;;4.07;2.40;;;27.50;52.60;;;;;;5059507;28;20223;-73
2023/06/29 09:45:45;;;;;;;3.78;2.75;;;28.10;52.80;;;;;;5066668;28;20220;-72
2023/06/29 09:48:12;;;;;;;4.78;2.50;;;28.70;51.60;;;;;;5072783;28;20201;-71
2023/06/29 09:50:40;;;;;;;2.70;2.22;;;28.30;50.20;;;;;;5072799;28;20234;-71
2023/06/29 09:53:09;;;;;;;4.75;2.70;;;28.30;49.70;;;;;;5072805;28;20283;-71
2023/06/29 09:55:37;;;;;;;6.00;2.60;;;28.60;49.30;;;;;;5072686;28;20236;-70
2023/06/29 09:58:06;;;;;;;4.35;2.55;;;28.60;48.00;;;;;;5072885;28;20613;-70
2023/06/29 10:00:35;;;;;;;4.13;2.42;;;27.60;49.10;;;;;;5072831;28;20283;-72
2023/06/29 10:03:02;;;;;;;3.40;2.40;;;27.90;48.80;;;;;;5072565;28;20199;-72
2023/06/29 10:05:31;;;;;;;3.78;2.40;;;28.90;48.80;;;;;;5072112;28;20258;-72
2023/06/29 10:07:58;;;;;;;4.53;2.50;;;29.30;47.60;;;;;;5067872;28;20242;-72
2023/06/29 10:10:29;;;;;;;4.13;2.58;;;30.00;47.00;;;;;;5072655;28;20255;-72
2023/06/29 10:12:58;;;;;;;4.25;2.45;;;30.50;44.40;;;;;;5072473;28;20260;-71
2023/06/29 10:15:27;;;;;;;2.95;2.38;;;30.60;43.40;;;;;;5078751;28;20467;-72
2023/06/29 10:18:01;;;;;;;4.15;2.60;;;30.80;43.10;;;;;;5092029;28;20211;-72
2023/06/29 10:20:31;;;;;;;4.57;3.40;;;30.90;43.10;;;;;;5092695;28;20196;-72
2023/06/29 10:23:00;;;;;;;4.68;2.10;;;31.50;41.60;;;;;;5093023;28;20287;-72
2023/06/29 10:25:28;;;;;;;2.33;1.95;;;30.60;40.60;;;;;;5092428;28;20623;-72
2023/06/29 10:27:55;;;;;;;2.83;2.20;;;31.30;39.40;;;;;;5092514;28;20222;-72
2023/06/29 10:30:22;;;;;;;4.32;2.35;;;32.40;39.50;;;;;;5092546;28;20230;-72
2023/06/29 10:32:50;;;;;;;6.75;2.35;;;31.60;37.60;;;;;;5092702;28;20238;-73
2023/06/29 10:35:18;;;;;;;3.53;2.50;;;30.90;38.10;;;;;;5092350;28;20196;-73
2023/06/29 10:37:48;;;;;;;3.40;2.50;;;29.70;38.60;;;;;;5092343;28;20281;-73
2023/06/29 10:40:16;;;;;;;6.47;2.30;;;28.70;39.60;;;;;;5092450;28;20656;-73
2023/06/29 10:42:51;;;;;;;5.65;2.35;;;28.60;40.40;;;;;;5092749;28;20656;-74
2023/06/29 10:45:34;;;;;;;3.70;2.22;;;29.00;39.50;;;;;;5092045;28;20203;-73
2023/06/29 10:48:05;;;;;;;3.55;2.40;;;30.60;38.20;;;;;;5092470;28;20648;-73
2023/06/29 10:50:37;;;;;;;4.82;2.40;;;31.90;37.50;;;;;;5092445;28;20245;-73
2023/06/29 10:53:08;;;;;;;3.20;2.08;;;32.00;35.90;;;;;;5092502;28;20269;-73
2023/06/29 10:55:43;;;;;;;2.88;2.38;;;32.90;35.90;;;;;;5092158;28;20236;-73
2023/06/29 10:58:21;;;;;;;4.60;2.17;;;33.80;33.00;;;;;;5092242;28;20252;-73
2023/06/29 11:00:49;;;;;;;2.30;2.10;;;34.20;32.70;;;;;;5092418;28;20233;-73
2023/06/29 11:03:16;;;;;;;3.22;2.20;;;35.90;31.60;;;;;;5092122;28;20639;-73
2023/06/29 11:05:47;;;;;;;2.58;1.90;;;34.30;29.40;;;;;;5092085;28;20656;-73
2023/06/29 11:08:14;;;;;;;2.88;2.20;;;34.70;29.70;;;;;;5092344;28;20226;-73
2023/06/29 11:10:40;;;;;;;4.25;2.33;;;35.40;28.70;;;;;;5092271;28;20253;-73
2023/06/29 11:13:10;;;;;;;2.95;2.10;;;32.80;28.90;;;;;;5092376;28;20249;-73
2023/06/29 11:15:37;;;;;;;3.83;2.30;;;33.00;29.30;;;;;;5092288;28;20200;-73
2023/06/29 11:18:05;;;;;;;2.50;2.30;;;31.80;29.70;;;;;;5092203;28;20204;-73
2023/06/29 11:20:33;;;;;;;2.55;2.30;;;32.20;29.70;;;;;;5092052;28;20206;-73
2023/06/29 11:23:01;;;;;;;4.00;2.15;;;32.10;29.80;;;;;;5092147;28;20610;-73
2023/06/29 11:25:29;;;;;;;3.55;2.10;;;33.10;29.40;;;;;;5092131;28;20585;-73
2023/06/29 11:27:56;;;;;;;3.88;2.30;;;34.00;28.90;;;;;;5092971;28;20207;-74
2023/06/29 11:30:23;;;;;;;3.53;2.30;;;35.60;27.90;;;;;;5095846;28;20237;-73
2023/06/29 11:32:51;;;;;;;5.80;2.65;;;35.50;26.90;;;;;;5095898;28;20196;-73
2023/06/29 11:35:21;;;;;;;3.58;2.30;;;36.00;26.20;;;;;;5095492;28;20254;-73
2023/06/29 11:37:48;;;;;;;4.47;2.17;;;35.00;26.40;;;;;;5096051;28;20192;-73
2023/06/29 11:40:20;;;;;;;5.43;2.53;;;35.90;26.70;;;;;;5096138;28;20242;-72
2023/06/29 11:42:48;;;;;;;4.15;2.40;;;36.50;25.80;;;;;;5095637;28;20220;-72
2023/06/29 11:45:15;;;;;;;3.55;2.05;;;36.40;25.70;;;;;;5095635;28;20202;-73
2023/06/29 11:47:43;;;;;;;2.20;2.00;;;36.70;25.00;;;;;;5095209;28;20335;-73
2023/06/29 11:50:10;;;;;;;3.50;2.60;;;36.30;24.90;;;;;;5095638;28;20604;-73
2023/06/29 11:52:39;;;;;;;2.65;2.35;;;33.90;25.70;;;;;;5062299;28;20266;-72
2023/06/29 11:55:08;;;;;;;2.47;2.13;;;32.10;27.40;;;;;;5074840;28;20700;-72
2023/06/29 11:57:37;;;;;;;4.10;2.72;;;30.90;28.60;;;;;;5075008;28;20197;-72
2023/06/29 12:00:06;;;;;;;3.08;2.50;;;30.70;29.10;;;;;;5074572;28;20201;-71
2023/06/29 12:02:34;;;;;;;4.57;2.60;;;31.10;29.20;;;;;;5074388;28;20731;-71
2023/06/29 12:05:03;;;;;;;3.58;2.50;;;31.50;28.60;;;;;;5074438;28;20201;-71
2023/06/29 12:07:37;;;;;;;4.30;2.67;;;32.00;28.70;;;;;;5074881;28;20200;-71
2023/06/29 12:10:06;;;;;;;3.28;2.40;;;32.80;27.80;;;;;;5074780;28;20197;-72
2023/06/29 12:12:38;;;;;;;3.05;2.38;;;33.80;26.80;;;;;;5074381;28;20200;-72
2023/06/29 12:15:18;;;;;;;2.90;2.47;;;34.50;26.90;;;;;;5074642;28;20721;-73
2023/06/29 12:17:48;;;;;;;2.80;2.60;;;34.20;26.20;;;;;;5074964;28;20196;-73
2023/06/29 12:20:16;;;;;;;2.60;2.40;;;33.50;26.50;;;;;;5074782;28;20249;-73
2023/06/29 12:22:43;;;;;;;4.32;2.30;;;34.60;26.60;;;;;;5074587;28;20736;-73
2023/06/29 12:25:12;;;;;;;3.30;2.47;;;36.40;25.40;;;;;;5074617;28;20689;-73
2023/06/29 12:27:41;;;;;;;2.42;2.22;;;36.30;25.10;;;;;;5074783;28;20192;-73
2023/06/29 12:30:10;;;;;;;3.78;2.20;;;36.60;25.10;;;;;;5074760;28;20555;-73
2023/06/29 12:32:36;;;;;;;3.28;2.28;;;37.00;24.50;;;;;;5074665;28;20617;-73
2023/06/29 12:35:03;;;;;;;2.58;2.20;;;37.70;24.20;;;;;;5074658;28;20222;-73
2023/06/29 12:37:30;;;;;;;2.90;2.67;;;36.70;24.10;;;;;;5074508;28;20346;-73
2023/06/29 12:39:56;;;;;;;3.40;2.17;;;35.50;24.80;;;;;;5073600;28;20202;-73
2023/06/29 12:42:23;;;;;;;3.40;2.38;;;35.10;25.50;;;;;;5074286;28;20615;-73
2023/06/29 12:44:52;;;;;;;3.00;2.35;;;35.50;25.60;;;;;;5074416;28;20207;-73
2023/06/29 12:47:19;;;;;;;4.43;2.50;;;33.90;25.40;;;;;;5074322;28;20203;-72